»·PEaware :: N4QS KGPI-KBZN

N4QS :: KGPI-KBZN

FLIGHT INFORMATION

Flight Status: Arrived
Operator: Privately registered:
United States
More flights under this callsign
Pilot: Anonymous 36068 (36068)
Aircraft: BEECH AIRCRAFT PREMIER
(PRM1)
More flights by this aircraft type
Origin: KGPI Glacier Park Intl
United States
Destination: KBZN Gallatin
United States
More flights between these airports :: More routes between these airports
Route: SKOTT2 SKOTT FALIA
File this flight plan on PilotEdge
Remarks:
Altitude:
(Current/Filed)
25,000ft
Speed:
(Current/Filed)
400kts
Departed: 30-Oct-21 11:45 AM
Arrived: 30-Oct-21 12:24 PM
Distance/Time
Traveled:
198nm/0:39
Distance/Time
To Go:
Arrived

Flight Plot

Page will automatically refresh every two minutes.

Flight plan parsing failed; only flown route is shown


Map Options




Map Legend


Flown Route
Filed Route
Departure Airport
Arrival Airport
Navaid (VOR, NDB)
Fix

Horizontal Profiles

Position Reports

Time Latitude Longitude Heading Altitude Ground
Speed
30-Oct-21 11:25 48.307284 -114.254252 310 2967ft 0kts
30-Oct-21 11:27 48.307284 -114.254252 310 2967ft 0kts
30-Oct-21 11:27 48.307284 -114.254252 310 2967ft 0kts
30-Oct-21 11:28 48.307284 -114.254252 310 2967ft 0kts
30-Oct-21 11:29 48.307284 -114.254252 310 2967ft 0kts
30-Oct-21 11:30 48.307284 -114.254252 310 2967ft 0kts
30-Oct-21 11:31 48.307284 -114.254252 310 2967ft 0kts
30-Oct-21 11:32 48.307284 -114.254252 310 2967ft 0kts
30-Oct-21 11:33 48.307284 -114.254252 310 2967ft 0kts
30-Oct-21 11:34 48.307284 -114.254252 310 2967ft 0kts
30-Oct-21 11:35 48.307284 -114.254252 310 2967ft 0kts
30-Oct-21 11:36 48.307284 -114.254252 310 2967ft 0kts
30-Oct-21 11:37 48.307284 -114.254252 310 2967ft 0kts
30-Oct-21 11:38 48.307284 -114.254252 310 2967ft 0kts
30-Oct-21 11:39 48.308142 -114.255544 264 2969ft 11kts
30-Oct-21 11:40 48.304646 -114.259541 214 2966ft 26kts
30-Oct-21 11:41 48.298763 -114.265650 215 2963ft 18kts
30-Oct-21 11:42 48.298416 -114.266459 282 2963ft 0kts
30-Oct-21 11:43 48.298416 -114.266459 282 2963ft 0kts
30-Oct-21 11:44 48.309766 -114.256341 32 2985ft 154kts
30-Oct-21 11:45 48.345120 -114.271455 264 5548ft 222kts
30-Oct-21 11:46 48.291410 -114.278456 119 8214ft 278kts
30-Oct-21 11:47 48.233790 -114.196269 146 10761ft 304kts
30-Oct-21 11:48 48.150942 -114.171193 178 13284ft 314kts
30-Oct-21 11:49 48.063682 -114.164960 179 15774ft 318kts
30-Oct-21 11:50 47.975613 -114.158624 181 18273ft 316kts
30-Oct-21 11:51 47.889093 -114.152409 182 20760ft 308kts
30-Oct-21 11:52 47.805549 -114.146381 183 23214ft 294kts
30-Oct-21 11:53 47.726514 -114.138566 165 25271ft 297kts
30-Oct-21 11:54 47.657177 -114.045799 133 25318ft 372kts
30-Oct-21 11:55 47.583124 -113.924713 133 25302ft 420kts
30-Oct-21 11:56 47.501399 -113.792082 133 25288ft 451kts
30-Oct-21 11:57 47.414671 -113.652024 133 25287ft 469kts
30-Oct-21 11:58 47.326703 -113.510727 133 25287ft 468kts
30-Oct-21 11:59 47.238527 -113.369862 133 25288ft 468kts
30-Oct-21 12:00 47.150159 -113.229482 134 25291ft 467kts
30-Oct-21 12:01 47.061706 -113.089628 134 25296ft 467kts
30-Oct-21 12:02 46.973307 -112.950359 135 25294ft 466kts
30-Oct-21 12:03 46.884857 -112.812036 136 25308ft 463kts
30-Oct-21 12:04 46.796830 -112.675263 136 25297ft 460kts
30-Oct-21 12:05 46.709009 -112.539274 136 25313ft 459kts
30-Oct-21 12:06 46.621405 -112.404323 136 25315ft 458kts
30-Oct-21 12:07 46.533457 -112.269523 137 24997ft 464kts
30-Oct-21 12:08 46.448925 -112.140592 137 22476ft 423kts
30-Oct-21 12:09 46.370393 -112.021411 136 19870ft 399kts
30-Oct-21 12:10 46.295132 -111.907707 136 16874ft 386kts
30-Oct-21 12:11 46.222426 -111.798262 135 14139ft 364kts
30-Oct-21 12:12 46.157966 -111.701423 135 14035ft 306kts
30-Oct-21 12:13 46.104964 -111.622184 136 14004ft 240kts
30-Oct-21 12:14 46.061951 -111.558193 136 13527ft 233kts
30-Oct-21 12:15 46.014014 -111.485549 132 10641ft 249kts
30-Oct-21 12:16 45.970506 -111.421209 136 9495ft 205kts
30-Oct-21 12:17 45.932839 -111.368381 136 8470ft 174kts
30-Oct-21 12:18 45.898525 -111.320617 137 7535ft 172kts
30-Oct-21 12:19 45.863992 -111.272508 135 6562ft 170kts
30-Oct-21 12:20 45.831452 -111.226981 135 5644ft 153kts
30-Oct-21 12:21 45.802292 -111.186280 135 4851ft 134kts
30-Oct-21 12:22 45.779156 -111.154053 136 4452ft 87kts
30-Oct-21 12:23 45.774748 -111.149818 226 4462ft 0kts
30-Oct-21 12:24 45.773481 -111.151712 224 4465ft 12kts
30-Oct-21 12:25 45.772649 -111.152844 144 4467ft 0kts

Navigation Log

Ident Type
Flight plan parsing failed, navigation log unavailable